Data for 01/18/2014

Time Sea-Level Adjusted Pressure Absolute Pressure Temperature Relative Humidity Dew Point   
(mb) (inHg) (mb) (inHg) (C) (F) (%) (C) (F)
00:05 1025 30.27 854 25.22 -0.2 31.6 53 -8.6 16.5
00:10 1025 30.27 854 25.22 -0.6 30.9 55 -8.6 16.4
00:15 1025 30.27 854 25.22 -0.8 30.6 55 -8.6 16.4
00:20 1025 30.27 854 25.22 -0.7 30.7 53 -9.2 15.4
00:25 1025 30.27 854 25.22 -0.2 31.7 50 -9.4 15
00:30 1025 30.27 854 25.22 0.6 33.1 49 -8.9 16
00:35 1025 30.27 854 25.22 -0.3 31.4 53 -8.7 16.3
00:40 1025 30.27 854 25.22 -0.2 31.6 51 -9.2 15.4
00:45 1025 30.27 854 25.22 0.2 32.3 50 -9.1 15.6
00:50 1025 30.27 854 25.22 0.3 32.5 49 -9.2 15.5
00:55 1025 30.27 854 25.22 0.6 33 48 -9.3 15.3
01:00 1025 30.27 854 25.22 0.8 33.4 49 -8.8 16.2
01:05 1025 30.27 854 25.22 0.2 32.3 52 -8.5 16.6
01:10 1025 30.27 854 25.22 -0.6 31 52 -9.3 15.2
01:15 1025 30.27 854 25.22 0.2 32.3 49 -9.3 15.3
01:20 1025 30.27 854 25.22 -0.1 31.8 54 -8.4 16.9
01:25 1025 30.27 854 25.22 -1.3 29.6 57 -8.9 16.1
01:30 1025 30.27 854 25.22 -0.9 30.3 52 -9.6 14.8
01:35 1025 30.27 854 25.22 -0.2 31.7 49 -9.6 14.7
01:40 1025 30.27 854 25.22 0.6 33 46 -9.8 14.4
01:45 1025 30.27 854 25.22 0.9 33.6 46 -9.5 15
01:50 1024 30.24 854 25.22 1.1 34 44 -9.8 14.4
01:55 1024 30.24 854 25.22 1 33.9 48 -8.8 16.1
02:00 1025 30.27 854 25.22 0.1 32.3 50 -9.1 15.7
02:05 1025 30.27 854 25.22 -0.4 31.3 53 -9 15.9
02:10 1025 30.27 854 25.22 -1 30.3 52 -9.6 14.8
02:15 1025 30.27 854 25.22 -0.9 30.5 53 -9.4 15.1
02:20 1025 30.27 854 25.22 -0.5 31.1 51 -9.6 14.8
02:25 1025 30.27 854 25.22 -0.2 31.7 50 -9.4 15.1
02:30 1025 30.27 854 25.22 -0.2 31.6 51 -9.1 15.7
02:35 1025 30.27 854 25.22 -1 30.1 55 -9 15.7
02:40 1025 30.27 854 25.22 -1.5 29.3 55 -9.4 15.1
02:45 1025 30.27 854 25.22 -1.3 29.7 53 -9.6 14.6
02:50 1025 30.27 854 25.22 -0.9 30.4 52 -9.5 15
02:55 1025 30.27 854 25.22 -0.4 31.2 50 -9.6 14.7
03:00 1025 30.27 854 25.22 -0.5 31.2 52 -9 15.7
03:05 1025 30.27 854 25.22 -0.9 30.5 53 -9.3 15.2
03:10 1025 30.27 854 25.22 -1 30.3 54 -9.2 15.5
03:15 1025 30.27 854 25.22 -1 30.3 53 -9.3 15.2
03:20 1025 30.27 854 25.22 -0.7 30.8 52 -9.4 15.1
03:25 1025 30.27 854 25.22 -0.6 30.9 52 -9.2 15.4
03:30 1025 30.27 854 25.22 -0.7 30.8 51 -9.5 14.9
03:35 1025 30.27 855 25.25 -0.6 30.9 52 -9.3 15.3
03:40 1025 30.27 855 25.25 -1 30.1 53 -9.4 15.1
03:45 1025 30.27 855 25.25 -1 30.2 53 -9.4 15.1
03:50 1025 30.27 855 25.25 -1.1 30.1 54 -9.3 15.3
03:55 1025 30.27 855 25.25 -1.3 29.7 53 -9.6 14.7
04:00 1025 30.27 855 25.25 -0.8 30.5 52 -9.6 14.8
04:05 1025 30.27 855 25.25 -1 30.1 53 -9.3 15.2
04:10 1025 30.27 855 25.25 -1.3 29.6 54 -9.5 14.9
04:15 1025 30.27 855 25.25 -1.5 29.3 54 -9.5 14.8
04:20 1025 30.27 855 25.25 -1.6 29.2 55 -9.4 15.1
04:25 1025 30.27 855 25.25 -1.6 29.1 55 -9.4 15.1
04:30 1026 30.3 855 25.25 -2.1 28.2 57 -9.5 15
04:35 1026 30.3 855 25.25 -2.6 27.3 59 -9.5 14.8
04:40 1026 30.3 855 25.25 -2.7 27.1 59 -9.7 14.6
04:45 1026 30.3 855 25.25 -2.4 27.7 57 -9.8 14.4
04:50 1026 30.3 855 25.25 -2.1 28.2 57 -9.5 14.9
04:55 1026 30.3 855 25.25 -2.1 28.2 57 -9.5 15
05:00 1026 30.3 855 25.25 -2.2 28.1 57 -9.5 14.8
05:05 1026 30.3 855 25.25 -2 28.4 57 -9.5 14.9
05:10 1026 30.3 855 25.25 -2 28.4 57 -9.4 15
05:15 1026 30.3 855 25.25 -2.2 28.1 57 -9.5 14.9
05:20 1026 30.3 855 25.25 -2.4 27.8 58 -9.5 15
05:25 1026 30.3 855 25.25 -2.4 27.8 57 -9.7 14.6
05:30 1026 30.3 855 25.25 -2.4 27.7 57 -9.8 14.3
05:35 1026 30.3 855 25.25 -2.2 28 56 -9.8 14.4
05:40 1026 30.3 855 25.25 -2 28.4 56 -9.7 14.5
05:45 1026 30.3 855 25.25 -1.8 28.8 55 -9.7 14.5
05:50 1026 30.3 855 25.25 -1.6 29.2 53 -9.8 14.3
05:55 1026 30.3 855 25.25 -1.8 28.7 56 -9.5 14.8
06:00 1026 30.3 855 25.25 -2.4 27.6 58 -9.6 14.7
06:05 1026 30.3 855 25.25 -2.7 27.2 59 -9.7 14.6
06:10 1026 30.3 855 25.25 -2.5 27.4 57 -9.8 14.3
06:15 1025 30.27 855 25.25 -2.3 27.8 57 -9.6 14.7
06:20 1025 30.27 855 25.25 -2.4 27.6 57 -9.7 14.5
06:25 1025 30.27 855 25.25 -2.3 27.9 57 -9.7 14.5
06:30 1025 30.27 855 25.25 -2.2 28 57 -9.7 14.6
06:35 1025 30.27 855 25.25 -2.2 28 57 -9.7 14.5
06:40 1026 30.3 855 25.25 -2.2 28 57 -9.6 14.6
06:45 1026 30.3 855 25.25 -2.3 27.9 57 -9.7 14.5
06:50 1025 30.27 855 25.25 -2.3 27.8 57 -9.7 14.5
06:55 1026 30.3 855 25.25 -2.5 27.4 58 -9.7 14.6
07:00 1025 30.27 855 25.25 -2.6 27.2 58 -9.8 14.3
07:05 1025 30.27 855 25.25 -2.5 27.6 57 -9.9 14.2
07:10 1025 30.27 855 25.25 -2.3 27.8 57 -9.8 14.3
07:15 1025 30.27 855 25.25 -2 28.4 55 -9.9 14.2
07:20 1025 30.27 855 25.25 -1.9 28.6 54 -9.9 14.1
07:25 1025 30.27 855 25.25 -1.6 29.1 53 -10 14.1
07:30 1025 30.27 855 25.25 -1.6 29.2 55 -9.5 14.9
07:35 1025 30.27 855 25.25 -2 28.4 57 -9.4 15
07:40 1025 30.27 855 25.25 -2.4 27.7 58 -9.5 14.8
07:45 1025 30.27 855 25.25 -2.8 26.9 60 -9.6 14.7
07:50 1025 30.27 855 25.25 -3.1 26.4 61 -9.6 14.8
07:55 1025 30.27 854 25.22 -3.1 26.3 61 -9.7 14.5
08:00 1025 30.27 854 25.22 -3.1 26.4 61 -9.6 14.8
08:05 1025 30.27 854 25.22 -3.2 26.2 59 -10.2 13.7
08:10 1025 30.27 854 25.22 -2.4 27.7 57 -9.8 14.3
08:15 1025 30.27 854 25.22 -2.4 27.7 56 -9.9 14.1
08:20 1025 30.27 854 25.22 -1.9 28.5 54 -10.1 13.8
08:25 1025 30.27 854 25.22 -1.4 29.5 54 -9.4 15
08:30 1025 30.27 854 25.22 -1.2 29.8 54 -9.5 14.9
08:35 1025 30.27 854 25.22 -1.7 28.9 56 -9.5 15
08:40 1025 30.27 854 25.22 -2.3 27.9 57 -9.6 14.8
08:45 1025 30.27 854 25.22 -2.7 27.2 58 -9.8 14.3
08:50 1025 30.27 854 25.22 -3 26.5 60 -9.8 14.4
08:55 1025 30.27 854 25.22 -3.3 26 60 -9.9 14.1
09:00 1025 30.27 854 25.22 -2.9 26.7 58 -10 14.1
09:05 1025 30.27 854 25.22 -3 26.6 60 -9.8 14.4
09:10 1025 30.27 854 25.22 -3.1 26.4 59 -10 13.9
09:15 1025 30.27 854 25.22 -2.7 27.2 57 -10.1 13.9
09:20 1025 30.27 854 25.22 -2.1 28.2 55 -9.9 14.2
09:25 1025 30.27 854 25.22 -1.9 28.6 54 -10 14
09:30 1025 30.27 854 25.22 -1.7 28.9 55 -9.6 14.8
09:35 1025 30.27 854 25.22 -2.1 28.2 56 -9.7 14.5
09:40 1025 30.27 854 25.22 -1.8 28.7 55 -9.8 14.3
09:45 1025 30.27 854 25.22 -1.9 28.6 56 -9.6 14.7
09:50 1025 30.27 854 25.22 -1.8 28.8 56 -9.4 15
09:55 1025 30.27 854 25.22 -1.6 29.2 53 -9.9 14.3
10:00 1025 30.27 854 25.22 -1.6 29.1 54 -9.7 14.5
10:05 1025 30.27 854 25.22 -1.6 29 54 -9.8 14.4
10:10 1025 30.27 854 25.22 -1.5 29.2 54 -9.7 14.5
10:15 1025 30.27 854 25.22 -1.3 29.7 55 -9.2 15.4
10:20 1025 30.27 855 25.25 -1.3 29.7 53 -9.6 14.8
10:25 1025 30.27 855 25.25 -0.9 30.4 53 -9.4 15.1
10:30 1025 30.27 855 25.25 -0.4 31.2 49 -9.8 14.3
10:35 1025 30.27 855 25.25 -0.5 31.1 51 -9.5 15
10:40 1026 30.3 855 25.25 -0.5 31.2 50 -9.6 14.7
10:45 1026 30.3 855 25.25 -0.4 31.3 50 -9.5 14.8
10:50 1026 30.3 855 25.25 -0.2 31.7 49 -9.6 14.6
10:55 1025 30.27 855 25.25 0.1 32.2 49 -9.5 14.9
11:00 1025 30.27 855 25.25 0.1 32.2 48 -9.6 14.7
11:05 1025 30.27 855 25.25 0.3 32.5 48 -9.4 15.1
11:10 1025 30.27 855 25.25 0.5 32.9 48 -9.4 15
11:15 1025 30.27 855 25.25 0.3 32.6 48 -9.5 15
11:20 1025 30.27 855 25.25 0.4 32.7 47 -9.6 14.8
11:25 1025 30.27 854 25.22 0.7 33.3 46 -9.7 14.5
11:30 1025 30.27 854 25.22 1.3 34.3 44 -9.7 14.5
11:35 1025 30.27 854 25.22 1.7 35.1 42 -9.8 14.4
11:40 1025 30.27 854 25.22 1.8 35.2 42 -9.8 14.4
11:45 1025 30.27 854 25.22 2.1 35.7 41 -9.8 14.4
11:50 1025 30.27 854 25.22 2.4 36.4 40 -9.9 14.2
11:55 1025 30.27 854 25.22 2.9 37.1 40 -9.5 14.9
12:00 1025 30.27 854 25.22 3.2 37.7 40 -9.3 15.3
12:05 1025 30.27 854 25.22 3.5 38.3 37 -9.9 14.2
12:10 1025 30.27 854 25.22 3.9 39 38 -9.3 15.3
12:15 1025 30.27 854 25.22 3.6 38.4 38 -9.5 14.9
12:20 1025 30.27 854 25.22 3.6 38.6 38 -9.5 14.8
12:25 1025 30.27 854 25.22 3.8 38.9 38 -9.2 15.5
12:30 1025 30.27 854 25.22 3.7 38.7 38 -9.3 15.3
12:35 1025 30.27 854 25.22 3.5 38.2 39 -9.4 15.1
12:40 1025 30.27 854 25.22 3.8 38.8 38 -9.2 15.4
12:45 1025 30.27 854 25.22 4.2 39.5 37 -9.2 15.5
12:50 1025 30.27 854 25.22 4.2 39.6 39 -8.6 16.5
12:55 1025 30.27 854 25.22 4.3 39.7 40 -8.3 17.1
13:00 1024 30.24 854 25.22 4.3 39.8 39 -8.5 16.8
13:05 1024 30.24 854 25.22 4.1 39.4 41 -8 17.5
13:10 1024 30.24 853 25.19 4.4 39.9 39 -8.4 16.9
13:15 1024 30.24 853 25.19 4.9 40.8 36 -9 15.8
13:20 1024 30.24 853 25.19 4.9 40.9 37 -8.5 16.7
13:25 1024 30.24 853 25.19 4.8 40.6 37 -8.6 16.4
13:30 1024 30.24 853 25.19 5 41 36 -9 15.9
13:35 1024 30.24 853 25.19 4.6 40.2 38 -8.4 16.9
13:40 1024 30.24 853 25.19 4.8 40.6 40 -7.8 18
13:45 1024 30.24 853 25.19 4.9 40.9 38 -8.3 17.1
13:50 1024 30.24 853 25.19 5.3 41.5 36 -8.6 16.6
13:55 1024 30.24 853 25.19 5.4 41.7 37 -8 17.6
14:00 1024 30.24 853 25.19 5.3 41.6 38 -7.7 18.1
14:05 1024 30.24 853 25.19 5 41 40 -7.6 18.3
14:10 1024 30.24 853 25.19 5 41 38 -8.1 17.5
14:15 1024 30.24 853 25.19 5.4 41.8 37 -8 17.6
14:20 1023 30.21 853 25.19 4.7 40.5 43 -6.8 19.7
14:25 1023 30.21 853 25.19 4.1 39.4 42 -7.5 18.4
14:30 1023 30.21 853 25.19 4.3 39.8 41 -7.7 18.1
14:35 1023 30.21 853 25.19 4.6 40.2 40 -8 17.5
14:40 1023 30.21 853 25.19 4.8 40.6 41 -7.3 18.9
14:45 1023 30.21 853 25.19 4.9 40.9 40 -7.6 18.3
14:50 1023 30.21 853 25.19 5.1 41.3 37 -8.2 17.2
14:55 1023 30.21 853 25.19 5.5 42 39 -7.4 18.7
15:00 1023 30.21 852 25.16 4.9 40.8 39 -8 17.7
15:05 1023 30.21 852 25.16 4.9 40.8 41 -7.2 19.1
15:10 1023 30.21 852 25.16 4.7 40.5 40 -7.8 18
15:15 1023 30.21 852 25.16 5.2 41.3 39 -7.6 18.3
15:20 1023 30.21 852 25.16 5.5 41.9 37 -8.1 17.5
15:25 1023 30.21 852 25.16 5.7 42.2 38 -7.5 18.5
15:30 1023 30.21 852 25.16 5.6 42.2 37 -7.8 17.9
15:35 1023 30.21 852 25.16 6.1 43 34 -8.6 16.6
15:40 1023 30.21 852 25.16 6.5 43.7 34 -8.3 17
15:45 1023 30.21 852 25.16 6.3 43.4 35 -8.2 17.2
15:50 1023 30.21 852 25.16 6.2 43.2 34 -8.4 16.9
15:55 1023 30.21 852 25.16 6.2 43.1 34 -8.4 16.9
16:00 1023 30.21 852 25.16 5.8 42.4 35 -8.4 16.9
16:05 1023 30.21 852 25.16 5.2 41.3 38 -8.1 17.4
16:10 1023 30.21 852 25.16 4.9 40.9 38 -8.1 17.4
16:15 1023 30.21 852 25.16 5.3 41.5 38 -8 17.6
16:20 1023 30.21 852 25.16 5.7 42.3 37 -7.7 18.1
16:25 1023 30.21 852 25.16 5.7 42.3 37 -7.9 17.8
16:30 1023 30.21 852 25.16 5.9 42.6 36 -7.9 17.8
16:35 1023 30.21 852 25.16 6.4 43.6 35 -8 17.6
16:40 1023 30.21 852 25.16 6.6 43.8 36 -7.3 18.9
16:45 1023 30.21 852 25.16 6.6 44 36 -7.5 18.4
16:50 1023 30.21 852 25.16 6.5 43.6 34 -8.1 17.4
16:55 1023 30.21 852 25.16 6.5 43.7 35 -8.1 17.5
17:00 1023 30.21 852 25.16 6.9 44.4 33 -8.3 17.1
17:05 1023 30.21 852 25.16 7 44.5 34 -7.9 17.8
17:10 1023 30.21 852 25.16 7.2 44.9 32 -8.3 17
17:15 1023 30.21 852 25.16 6.9 44.4 34 -7.8 17.9
17:20 1023 30.21 852 25.16 6.7 44.1 34 -8 17.6
17:25 1023 30.21 852 25.16 6.7 44.1 36 -7.4 18.7
17:30 1023 30.21 852 25.16 6.5 43.7 36 -7.5 18.5
17:35 1023 30.21 852 25.16 6.4 43.5 38 -6.8 19.8
17:40 1023 30.21 852 25.16 5.8 42.4 40 -6.7 20
17:45 1023 30.21 852 25.16 5.2 41.4 41 -7 19.4
17:50 1023 30.21 852 25.16 5.1 41.2 39 -7.8 18
17:55 1023 30.21 852 25.16 5.2 41.3 40 -7.5 18.5
18:00 1023 30.21 852 25.16 4.9 40.9 41 -7.2 19
18:05 1023 30.21 852 25.16 4.9 40.8 41 -7.2 19
18:10 1022 30.18 852 25.16 4.5 40.1 42 -7.2 19.1
18:15 1022 30.18 852 25.16 4.3 39.7 43 -7.3 18.9
18:20 1022 30.18 852 25.16 4.4 39.8 40 -8 17.6
18:25 1022 30.18 852 25.16 4.4 39.9 44 -6.8 19.7
18:30 1022 30.18 852 25.16 4.3 39.7 45 -6.6 20.1
18:35 1022 30.18 852 25.16 4 39.2 45 -6.9 19.5
18:40 1022 30.18 852 25.16 3.5 38.3 48 -6.6 20.1
18:45 1022 30.18 852 25.16 3.3 38 46 -7.3 18.9
18:50 1022 30.18 852 25.16 3.5 38.4 47 -6.8 19.8
18:55 1022 30.18 852 25.16 3.6 38.4 48 -6.6 20.2
19:00 1022 30.18 851 25.13 3.1 37.5 50 -6.3 20.6
19:05 1022 30.18 851 25.13 2.4 36.4 52 -6.4 20.4
19:10 1022 30.18 851 25.13 2.3 36.1 51 -6.9 19.5
19:15 1022 30.18 851 25.13 2.8 37.1 47 -7.3 18.9
19:20 1022 30.18 851 25.13 3 37.4 47 -7.1 19.3
19:25 1022 30.18 851 25.13 2.9 37.2 48 -7 19.3
19:30 1022 30.18 851 25.13 2.9 37.1 48 -7.1 19.3
19:35 1022 30.18 851 25.13 2.7 36.9 49 -7.1 19.2
19:40 1022 30.18 851 25.13 2.5 36.6 50 -7 19.5
19:45 1022 30.18 851 25.13 2.4 36.4 50 -7.1 19.3
19:50 1022 30.18 851 25.13 2.1 35.8 51 -7 19.4
19:55 1022 30.18 851 25.13 1.5 34.8 53 -7 19.4
20:00 1022 30.18 851 25.13 1.8 35.2 50 -7.7 18.2
20:05 1022 30.18 851 25.13 2.3 36.1 50 -7.2 19
20:10 1022 30.18 851 25.13 2.1 35.8 49 -7.4 18.7
20:15 1022 30.18 851 25.13 2.3 36.1 48 -7.6 18.3
20:20 1022 30.18 851 25.13 2.6 36.6 47 -7.6 18.3
20:25 1022 30.18 851 25.13 2.8 37 47 -7.5 18.5
20:30 1022 30.18 851 25.13 2.7 36.8 48 -7.4 18.7
20:35 1022 30.18 851 25.13 2.4 36.3 50 -7.1 19.2
20:40 1022 30.18 851 25.13 2.1 35.8 50 -7.3 18.8
20:45 1022 30.18 851 25.13 2 35.5 50 -7.4 18.7
20:50 1022 30.18 851 25.13 2.1 35.8 50 -7.3 18.9
20:55 1022 30.18 851 25.13 2 35.5 50 -7.3 18.9
21:00 1022 30.18 851 25.13 1.7 35 52 -7.2 19.1
21:05 1022 30.18 851 25.13 1.3 34.4 53 -7.2 19.1
21:10 1021 30.15 851 25.13 0.9 33.5 55 -7.1 19.2
21:15 1022 30.18 851 25.13 0.7 33.3 55 -7.4 18.6
21:20 1021 30.15 851 25.13 1 33.7 54 -7.3 18.9
21:25 1021 30.15 851 25.13 1.1 33.9 52 -7.6 18.3
21:30 1021 30.15 851 25.13 1.3 34.3 52 -7.6 18.2
21:35 1021 30.15 851 25.13 1.4 34.5 51 -7.6 18.4
21:40 1021 30.15 851 25.13 1.5 34.6 51 -7.7 18.2
21:45 1021 30.15 851 25.13 1.6 34.9 50 -7.7 18.1
21:50 1021 30.15 851 25.13 1.7 35 49 -7.8 18
21:55 1021 30.15 850 25.1 2 35.6 48 -7.8 17.9
22:00 1021 30.15 850 25.1 2.2 35.9 48 -7.6 18.2
22:05 1021 30.15 850 25.1 2.1 35.7 49 -7.6 18.3
22:10 1021 30.15 850 25.1 2 35.5 49 -7.6 18.3
22:15 1021 30.15 850 25.1 1.9 35.3 51 -7.2 19
22:20 1021 30.15 850 25.1 1.8 35.2 50 -7.5 18.5
22:25 1021 30.15 850 25.1 1.4 34.6 52 -7.4 18.6
22:30 1021 30.15 850 25.1 1.3 34.4 50 -7.9 17.8
22:35 1021 30.15 850 25.1 1.5 34.7 50 -7.8 18
22:40 1021 30.15 850 25.1 1.3 34.4 51 -7.7 18.1
22:45 1021 30.15 850 25.1 1.4 34.6 50 -7.9 17.8
22:50 1021 30.15 850 25.1 1.7 35 50 -7.7 18.1
22:55 1021 30.15 850 25.1 1.7 35 50 -7.6 18.3
23:00 1021 30.15 850 25.1 1.4 34.5 51 -7.8 18
23:05 1021 30.15 850 25.1 1.3 34.4 52 -7.5 18.4
23:10 1021 30.15 850 25.1 1.1 33.9 52 -7.6 18.2
23:15 1021 30.15 850 25.1 1.5 34.6 49 -8.1 17.4
23:20 1021 30.15 850 25.1 1.7 35.1 50 -7.6 18.4
23:25 1021 30.15 850 25.1 1.7 35 49 -7.9 17.8
23:30 1021 30.15 850 25.1 1.9 35.4 49 -7.7 18.2
23:35 1021 30.15 850 25.1 1.7 35 49 -7.9 17.8
23:40 1021 30.15 850 25.1 2 35.6 48 -7.9 17.8
23:45 1021 30.15 850 25.1 2 35.6 50 -7.5 18.5
23:50 1020 30.12 850 25.1 1.3 34.4 52 -7.4 18.6
23:55 1020 30.12 849 25.07 1.1 34 52 -7.6 18.3
24:00 1020 30.12 849 25.07 1 33.8 50 -8.2 17.3